createdAt,value
2018-06-08T00:01:39.799Z,90.90
2018-06-08T00:04:08.872Z,90.90
2018-06-08T00:06:37.903Z,91.00
2018-06-08T00:09:08.816Z,91.10
2018-06-08T00:11:37.922Z,91.20
2018-06-08T00:14:07.055Z,91.40
2018-06-08T00:19:04.827Z,91.70
2018-06-08T00:26:32.041Z,91.90
2018-06-08T00:29:01.071Z,91.90
2018-06-08T00:31:30.275Z,92.40
2018-06-08T00:33:59.380Z,92.10
2018-06-08T00:38:57.078Z,92.20
2018-06-08T00:41:26.088Z,92.10
2018-06-08T00:43:55.187Z,92.10
2018-06-08T00:46:24.235Z,92.10
2018-06-08T00:48:53.265Z,92.10
2018-06-08T00:51:22.251Z,92.30
2018-06-08T00:53:51.303Z,92.30
2018-06-08T00:56:31.939Z,92.40
2018-06-08T00:59:01.966Z,92.40
2018-06-08T01:01:31.092Z,92.60
2018-06-08T01:04:00.103Z,92.60
2018-06-08T01:06:29.155Z,92.60
2018-06-08T01:08:58.192Z,92.90
2018-06-08T01:11:27.246Z,92.70
2018-06-08T01:13:56.281Z,93.00
2018-06-08T01:16:25.436Z,93.20
2018-06-08T01:18:54.494Z,93.30
2018-06-08T01:21:24.515Z,93.20
2018-06-08T01:23:54.911Z,93.60
2018-06-08T01:26:23.888Z,93.50
2018-06-08T01:28:52.891Z,93.70
2018-06-08T01:31:21.879Z,93.60
2018-06-08T01:33:50.980Z,93.90
2018-06-08T01:36:20.022Z,93.90
2018-06-08T01:38:50.351Z,93.90
2018-06-08T01:41:19.364Z,94.00
2018-06-08T01:43:48.387Z,93.90
2018-06-08T01:48:46.087Z,94.20
2018-06-08T01:51:15.177Z,94.10
2018-06-08T01:59:59.916Z,94.30
2018-06-08T02:02:30.834Z,94.40
2018-06-08T02:05:00.913Z,94.60
2018-06-08T02:07:29.977Z,94.80
2018-06-08T02:10:00.241Z,94.60
2018-06-08T02:12:29.221Z,95.20
2018-06-08T02:14:58.356Z,95.30
2018-06-08T02:17:28.279Z,95.50
2018-06-08T02:19:57.463Z,95.60
2018-06-08T02:22:26.626Z,95.70
2018-06-08T02:24:56.578Z,95.70
2018-06-08T02:27:25.606Z,95.80
2018-06-08T02:29:57.153Z,95.80
2018-06-08T02:32:26.309Z,96.00
2018-06-08T02:34:55.483Z,96.10
2018-06-08T02:37:25.490Z,96.30
2018-06-08T02:39:54.605Z,96.50
2018-06-08T02:42:24.863Z,96.70
2018-06-08T02:47:23.424Z,96.60
2018-06-08T02:49:52.523Z,96.60
2018-06-08T02:52:22.845Z,96.60
2018-06-08T02:54:51.866Z,97.00
2018-06-08T03:04:02.077Z,97.20
2018-06-08T03:06:31.108Z,97.30
2018-06-08T03:09:02.568Z,97.90
2018-06-08T03:11:31.729Z,98.00
2018-06-08T03:14:00.802Z,98.10
2018-06-08T03:16:34.377Z,98.30
2018-06-08T03:21:32.952Z,98.30
2018-06-08T03:24:02.077Z,98.30
2018-06-08T03:26:31.114Z,98.50
2018-06-08T03:29:00.281Z,98.60
2018-06-08T03:33:58.103Z,98.60
2018-06-08T03:36:27.163Z,98.90
2018-06-08T03:38:56.443Z,98.70
2018-06-08T03:41:25.493Z,98.80
2018-06-08T03:43:54.480Z,99.30
2018-06-08T03:46:23.537Z,99.10
2018-06-08T03:51:21.989Z,99.20
2018-06-08T03:53:51.004Z,99.30
2018-06-08T03:56:20.179Z,99.40
2018-06-08T03:58:50.047Z,99.10
2018-06-08T04:03:48.154Z,99.30
2018-06-08T04:06:18.460Z,99.50
2018-06-08T04:08:47.476Z,99.60
2018-06-08T04:11:16.567Z,99.60
2018-06-08T04:13:45.665Z,99.70
2018-06-08T04:16:14.935Z,99.50
2018-06-08T04:18:47.155Z,99.50
2018-06-08T04:21:16.228Z,99.60
2018-06-08T04:23:45.274Z,99.60
2018-06-08T04:28:43.124Z,99.40
2018-06-08T04:31:12.252Z,99.60
2018-06-08T04:33:41.368Z,99.60
2018-06-08T04:36:10.523Z,99.40
2018-06-08T04:38:40.442Z,99.30
2018-06-08T04:41:10.152Z,99.10
2018-06-08T04:43:41.636Z,98.20
2018-06-08T04:46:11.318Z,96.10
2018-06-08T04:48:40.392Z,93.60
2018-06-08T04:51:10.680Z,92.10
2018-06-08T04:53:40.730Z,90.50
2018-06-08T04:56:10.550Z,88.00
2018-06-08T04:58:39.810Z,85.00
2018-06-08T05:01:11.066Z,83.30
2018-06-08T05:03:40.226Z,80.20
2018-06-08T05:06:09.313Z,75.20
2018-06-08T05:08:39.542Z,74.90
2018-06-08T05:11:08.703Z,73.00
2018-06-08T05:13:37.909Z,72.90
2018-06-08T05:16:07.063Z,71.80
2018-06-08T05:18:37.425Z,72.40
2018-06-08T05:21:06.429Z,68.70
2018-06-08T05:23:37.532Z,64.90
2018-06-08T05:26:06.653Z,64.90
2018-06-08T05:28:37.019Z,61.60
2018-06-08T05:33:35.659Z,61.00
2018-06-08T05:36:04.863Z,61.70
2018-06-08T05:38:34.108Z,60.30
2018-06-08T05:41:03.937Z,60.70
2018-06-08T05:43:33.032Z,58.50
2018-06-08T05:46:02.058Z,58.60
2018-06-08T05:48:31.995Z,56.40
2018-06-08T05:51:01.125Z,54.10
2018-06-08T05:53:30.228Z,52.60
2018-06-08T05:55:59.240Z,51.40
2018-06-08T05:58:29.203Z,51.20
2018-06-08T06:00:58.273Z,48.50
2018-06-08T06:03:27.990Z,46.50
2018-06-08T06:05:57.092Z,46.90
2018-06-08T06:08:26.119Z,48.40
2018-06-08T06:10:55.199Z,46.60
2018-06-08T06:13:24.180Z,47.40
2018-06-08T06:15:53.236Z,47.20
2018-06-08T06:18:22.234Z,46.10
2018-06-08T06:20:52.863Z,45.50
2018-06-08T06:23:21.823Z,44.60
2018-06-08T06:25:57.445Z,44.50
2018-06-08T06:28:26.408Z,45.20
2018-06-08T06:30:55.568Z,43.10
2018-06-08T06:33:24.617Z,41.80
2018-06-08T06:35:53.662Z,42.50
2018-06-08T06:38:22.701Z,41.30
2018-06-08T06:40:51.683Z,41.10
2018-06-08T06:43:20.808Z,40.30
2018-06-08T06:45:49.834Z,41.00
2018-06-08T06:48:18.906Z,39.70
2018-06-08T06:53:16.689Z,41.40
2018-06-08T06:55:48.041Z,39.60
2018-06-08T06:58:17.105Z,39.70
2018-06-08T07:00:46.765Z,40.30
2018-06-08T07:03:16.499Z,39.40
2018-06-08T07:05:45.465Z,39.70
2018-06-08T07:08:14.472Z,38.80
2018-06-08T07:10:43.484Z,37.90
2018-06-08T07:13:12.457Z,39.10
2018-06-08T07:15:41.489Z,39.40
2018-06-08T07:18:10.505Z,39.20
2018-06-08T07:20:39.530Z,38.80
2018-06-08T07:23:09.843Z,40.00
2018-06-08T07:25:38.808Z,38.10
2018-06-08T07:28:07.807Z,37.60
2018-06-08T07:33:05.571Z,38.40
2018-06-08T07:35:34.588Z,38.30
2018-06-08T07:38:03.654Z,37.90
2018-06-08T07:40:32.665Z,38.70
2018-06-08T07:45:34.976Z,39.10
2018-06-08T07:48:03.983Z,38.00
2018-06-08T07:50:32.943Z,37.00
2018-06-08T07:55:30.763Z,37.20
2018-06-08T07:57:59.792Z,38.30
2018-06-08T08:00:30.042Z,38.10
2018-06-08T08:05:28.547Z,40.80
2018-06-08T08:10:26.779Z,44.30
2018-06-08T08:12:55.728Z,47.30
2018-06-08T08:15:25.519Z,49.30
2018-06-08T08:17:54.505Z,51.60
2018-06-08T08:20:23.528Z,54.20
2018-06-08T08:25:22.312Z,55.90
2018-06-08T08:27:52.078Z,55.80
2018-06-08T08:30:21.155Z,57.80
2018-06-08T08:32:51.259Z,58.30
2018-06-08T08:35:20.208Z,60.10
2018-06-08T08:37:49.827Z,58.00
2018-06-08T08:40:18.813Z,57.90
2018-06-08T08:42:51.511Z,58.30
2018-06-08T08:45:20.464Z,58.20
2018-06-08T08:47:49.441Z,58.70
2018-06-08T08:50:19.249Z,57.70
2018-06-08T08:52:48.188Z,57.90
2018-06-08T08:55:17.988Z,58.50
2018-06-08T08:57:47.043Z,58.10
2018-06-08T09:00:16.038Z,56.80
2018-06-08T09:02:45.012Z,59.30
2018-06-08T09:05:14.024Z,56.90
2018-06-08T09:07:43.016Z,56.30
2018-06-08T09:10:12.901Z,56.10
2018-06-08T09:12:41.831Z,56.30
2018-06-08T09:15:11.482Z,58.70
2018-06-08T09:17:40.532Z,58.30
2018-06-08T09:20:10.231Z,59.10
2018-06-08T09:22:39.246Z,58.80
2018-06-08T09:25:08.205Z,57.40
2018-06-08T09:27:37.237Z,58.60
2018-06-08T09:30:07.081Z,59.20
2018-06-08T09:32:36.089Z,57.30
2018-06-08T09:35:05.085Z,56.90
2018-06-08T09:40:03.927Z,56.30
2018-06-08T09:42:33.010Z,57.30
2018-06-08T09:45:01.972Z,58.60
2018-06-08T09:47:31.047Z,57.10
2018-06-08T09:50:01.304Z,57.40
2018-06-08T09:54:59.065Z,56.20
2018-06-08T09:57:28.728Z,55.60
2018-06-08T09:59:58.534Z,56.20
2018-06-08T10:02:27.564Z,55.10
2018-06-08T10:04:56.569Z,54.50
2018-06-08T10:07:25.874Z,54.80
2018-06-08T10:12:23.463Z,55.00
2018-06-08T10:14:53.649Z,54.30
2018-06-08T10:17:22.624Z,54.40
2018-06-08T10:19:51.584Z,54.50
2018-06-08T10:22:20.540Z,54.70
2018-06-08T10:24:49.547Z,53.80
2018-06-08T10:27:18.532Z,54.70
2018-06-08T10:29:48.412Z,53.20
2018-06-08T10:32:17.398Z,54.10
2018-06-08T10:34:46.398Z,53.10
2018-06-08T10:37:15.345Z,56.00
2018-06-08T10:39:44.344Z,52.30
2018-06-08T10:42:13.333Z,53.00
2018-06-08T10:44:42.309Z,54.20
2018-06-08T10:47:11.249Z,52.50
2018-06-08T10:49:40.755Z,52.90
2018-06-08T10:52:09.757Z,52.90
2018-06-08T10:54:39.945Z,52.40
2018-06-08T10:57:09.080Z,53.40
2018-06-08T10:59:38.177Z,53.50
2018-06-08T11:02:07.252Z,52.80
2018-06-08T11:04:36.425Z,52.50
2018-06-08T11:07:05.436Z,53.70
2018-06-08T11:09:34.534Z,52.80
2018-06-08T11:12:03.495Z,54.00
2018-06-08T11:17:01.091Z,52.30
2018-06-08T11:19:30.013Z,51.40
2018-06-08T11:22:00.568Z,51.70
2018-06-08T11:24:29.601Z,50.70
2018-06-08T11:26:59.893Z,51.70
2018-06-08T11:29:28.858Z,51.70
2018-06-08T11:31:57.785Z,52.20
2018-06-08T11:34:26.828Z,52.10
2018-06-08T11:36:55.860Z,52.40
2018-06-08T11:39:26.080Z,51.70
2018-06-08T11:41:55.039Z,51.40
2018-06-08T11:44:24.098Z,50.90
2018-06-08T11:46:53.099Z,52.70
2018-06-08T11:49:22.108Z,51.30
2018-06-08T11:51:52.344Z,49.80
2018-06-08T11:54:21.382Z,49.50
2018-06-08T11:56:50.721Z,51.90
2018-06-08T11:59:19.770Z,49.90
2018-06-08T12:01:48.823Z,50.70
2018-06-08T12:04:17.870Z,50.70
2018-06-08T12:06:46.967Z,51.40
2018-06-08T12:11:44.803Z,51.20
2018-06-08T12:14:13.825Z,50.50
2018-06-08T12:16:42.843Z,50.40
2018-06-08T12:19:11.891Z,50.70
2018-06-08T12:21:40.875Z,51.40
2018-06-08T12:24:09.885Z,51.60
2018-06-08T12:26:38.946Z,51.10
2018-06-08T12:29:07.981Z,50.20
2018-06-08T12:31:37.032Z,51.40
2018-06-08T12:34:06.129Z,51.00
2018-06-08T12:36:35.107Z,51.40
2018-06-08T12:39:06.222Z,50.90
2018-06-08T12:41:35.581Z,52.10
2018-06-08T12:44:04.536Z,50.80
2018-06-08T12:46:34.289Z,49.30
2018-06-08T12:49:03.363Z,48.80
2018-06-08T12:51:32.424Z,50.10
2018-06-08T12:54:01.482Z,51.10
2018-06-08T12:56:31.405Z,51.70
2018-06-08T12:59:00.509Z,51.20
2018-06-08T13:01:29.529Z,48.50
2018-06-08T13:06:27.221Z,48.50
2018-06-08T13:11:24.934Z,48.00
2018-06-08T13:13:54.763Z,48.60
2018-06-08T13:16:24.703Z,48.50
2018-06-08T13:18:54.769Z,49.20
2018-06-08T13:21:23.852Z,49.90
2018-06-08T13:23:52.880Z,49.60
2018-06-08T13:26:21.908Z,48.50
2018-06-08T13:31:19.615Z,49.20
2018-06-08T13:33:48.752Z,49.50
2018-06-08T13:36:17.784Z,47.50
2018-06-08T13:38:46.838Z,48.40
2018-06-08T13:41:15.896Z,48.20
2018-06-08T13:43:44.954Z,48.60
2018-06-08T13:46:25.612Z,47.50
2018-06-08T13:48:54.621Z,48.40
2018-06-08T13:51:23.606Z,48.50
2018-06-08T13:53:52.680Z,47.80
2018-06-08T14:05:10.073Z,46.80
2018-06-08T14:07:39.174Z,46.60
2018-06-08T14:10:08.344Z,47.30
2018-06-08T14:12:37.382Z,49.40
2018-06-08T14:15:06.623Z,49.40
2018-06-08T14:17:35.676Z,47.90
2018-06-08T14:22:33.633Z,47.80
2018-06-08T14:25:02.748Z,48.00
2018-06-08T14:27:32.724Z,47.80
2018-06-08T14:30:02.601Z,47.20
2018-06-08T14:32:32.429Z,47.30
2018-06-08T14:35:01.442Z,47.70
2018-06-08T14:37:30.543Z,47.20
2018-06-08T14:40:00.009Z,47.30
2018-06-08T14:42:29.056Z,47.30
2018-06-08T14:45:00.047Z,47.60
2018-06-08T14:47:29.119Z,49.20
2018-06-08T14:49:58.235Z,51.50
2018-06-08T14:52:27.320Z,48.80
2018-06-08T14:54:56.468Z,50.20
2018-06-08T14:57:26.683Z,52.30
2018-06-08T14:59:56.556Z,50.90
2018-06-08T15:02:25.573Z,50.60
2018-06-08T15:04:54.673Z,52.20
2018-06-08T15:07:25.133Z,52.40
2018-06-08T15:09:55.596Z,53.90
2018-06-08T15:12:24.868Z,54.20
2018-06-08T15:14:53.965Z,51.60
2018-06-08T15:17:23.788Z,52.50
2018-06-08T15:19:52.912Z,54.10
2018-06-08T15:27:19.407Z,53.90
2018-06-08T15:29:48.478Z,55.30
2018-06-08T15:32:17.561Z,55.70
2018-06-08T15:34:47.467Z,55.80
2018-06-08T15:37:23.024Z,55.90
2018-06-08T15:39:54.462Z,56.90
2018-06-08T15:42:23.547Z,57.60
2018-06-08T15:44:52.595Z,56.50
2018-06-08T15:47:21.687Z,56.60
2018-06-08T15:49:50.871Z,56.20
2018-06-08T15:52:20.050Z,56.60
2018-06-08T15:57:17.899Z,55.90
2018-06-08T15:59:47.033Z,56.00
2018-06-08T16:02:17.634Z,55.40
2018-06-08T16:04:46.872Z,55.30
2018-06-08T16:07:16.916Z,56.00
2018-06-08T16:09:46.312Z,56.50
2018-06-08T16:12:15.533Z,56.60
2018-06-08T16:14:44.721Z,56.90
2018-06-08T16:17:13.887Z,57.70
2018-06-08T16:19:43.003Z,57.70
2018-06-08T16:22:12.086Z,57.60
2018-06-08T16:24:42.355Z,57.30
2018-06-08T16:27:11.426Z,58.00
2018-06-08T16:29:40.473Z,58.30
2018-06-08T16:32:09.544Z,58.10
2018-06-08T16:34:38.589Z,58.10
2018-06-08T16:37:07.644Z,58.80
2018-06-08T16:42:05.499Z,59.20
2018-06-08T16:44:34.585Z,58.80
2018-06-08T16:47:05.037Z,58.50
2018-06-08T16:49:34.104Z,58.50
2018-06-08T16:52:03.422Z,58.10
2018-06-08T16:54:42.433Z,57.60
2018-06-08T16:57:12.703Z,57.90
2018-06-08T17:02:10.623Z,58.30
2018-06-08T17:04:40.506Z,57.90
2018-06-08T17:07:09.600Z,58.10
2018-06-08T17:12:07.468Z,57.80
2018-06-08T17:14:36.531Z,57.40
2018-06-08T17:17:05.550Z,56.90
2018-06-08T17:19:35.926Z,57.30
2018-06-08T17:22:04.961Z,57.20
2018-06-08T17:24:36.988Z,57.20
2018-06-08T17:27:06.275Z,57.50
2018-06-08T17:29:35.730Z,57.80
2018-06-08T17:32:04.928Z,57.90
2018-06-08T17:34:34.020Z,58.30
2018-06-08T17:37:03.082Z,58.60
2018-06-08T17:39:32.413Z,58.80
2018-06-08T17:42:01.508Z,59.40
2018-06-08T17:44:31.864Z,59.90
2018-06-08T17:47:00.944Z,60.40
2018-06-08T17:49:30.071Z,61.00
2018-06-08T17:51:59.142Z,61.40
2018-06-08T17:54:28.290Z,61.80
2018-06-08T17:56:57.368Z,62.90
2018-06-08T17:59:26.630Z,62.80
2018-06-08T18:01:56.937Z,63.60
2018-06-08T18:04:27.021Z,64.30
2018-06-08T18:06:57.344Z,64.20
2018-06-08T18:09:27.287Z,65.20
2018-06-08T18:11:56.359Z,66.00
2018-06-08T18:16:54.090Z,67.70
2018-06-08T18:19:28.029Z,69.20
2018-06-08T18:21:59.995Z,71.00
2018-06-08T18:24:29.132Z,71.40
2018-06-08T18:26:58.889Z,72.40
2018-06-08T18:29:28.024Z,73.30
2018-06-08T18:31:57.241Z,73.90
2018-06-08T18:34:27.035Z,73.40
2018-06-08T18:36:57.279Z,73.60
2018-06-08T18:39:26.350Z,73.60
2018-06-08T18:41:56.630Z,73.10
2018-06-08T18:46:56.922Z,73.60
2018-06-08T18:49:26.086Z,74.00
2018-06-08T18:51:56.050Z,74.80
2018-06-08T18:54:25.295Z,75.90
2018-06-08T18:59:24.625Z,77.50
2018-06-08T19:01:54.903Z,77.90
2018-06-08T19:04:24.763Z,78.40
2018-06-08T19:06:54.772Z,78.80
2018-06-08T19:09:23.977Z,78.50
2018-06-08T19:11:54.304Z,79.40
2018-06-08T19:14:24.619Z,79.00
2018-06-08T19:16:55.022Z,79.20
2018-06-08T19:19:25.943Z,79.40
2018-06-08T19:21:55.092Z,79.60
2018-06-08T19:24:25.005Z,80.30
2018-06-08T19:26:54.060Z,81.20
2018-06-08T19:31:52.028Z,82.10
2018-06-08T19:34:21.089Z,83.10
2018-06-08T19:36:51.104Z,83.20
2018-06-08T19:39:20.325Z,83.60
2018-06-08T19:41:49.443Z,84.10
2018-06-08T19:44:19.305Z,84.70
2018-06-08T19:46:49.280Z,85.20
2018-06-08T19:49:18.386Z,85.10
2018-06-08T19:51:48.184Z,85.50
2018-06-08T19:54:18.591Z,85.90
2018-06-08T19:56:47.701Z,86.10
2018-06-08T19:59:16.839Z,86.30
2018-06-08T20:01:45.853Z,86.50
2018-06-08T20:04:14.963Z,86.50
2018-06-08T20:06:44.003Z,86.90
2018-06-08T20:09:13.965Z,87.20
2018-06-08T20:11:43.063Z,87.70
2018-06-08T20:14:13.370Z,88.00
2018-06-08T20:16:42.437Z,88.30
2018-06-08T20:19:11.492Z,88.50
2018-06-08T20:21:40.511Z,88.70
2018-06-08T20:24:09.666Z,89.10
2018-06-08T20:26:38.767Z,89.70
2018-06-08T20:29:07.841Z,89.90
2018-06-08T20:31:36.933Z,90.20
2018-06-08T20:34:06.239Z,90.40
2018-06-08T20:36:35.352Z,90.60
2018-06-08T20:39:06.798Z,90.90
2018-06-08T20:41:36.839Z,90.80
2018-06-08T20:44:05.795Z,91.10
2018-06-08T20:46:34.879Z,91.40
2018-06-08T20:49:03.922Z,91.50
2018-06-08T20:51:32.967Z,91.70
2018-06-08T20:54:02.048Z,92.00
2018-06-08T20:56:31.175Z,91.90
2018-06-08T20:59:00.213Z,92.10
2018-06-08T21:01:29.347Z,92.20
2018-06-08T21:04:07.189Z,92.40
2018-06-08T21:06:36.392Z,92.50
2018-06-08T21:09:06.937Z,92.90
2018-06-08T21:14:04.729Z,93.00
2018-06-08T21:16:33.795Z,93.10
2018-06-08T21:19:02.889Z,93.20
2018-06-08T21:21:31.936Z,93.50
2018-06-08T21:28:58.295Z,93.70
2018-06-08T21:31:27.255Z,93.70
2018-06-08T21:33:56.279Z,94.10
2018-06-08T21:36:25.304Z,93.90
2018-06-08T21:38:54.283Z,93.90
2018-06-08T21:41:23.313Z,94.00
2018-06-08T21:43:52.422Z,94.40
2018-06-08T21:46:22.651Z,94.20
2018-06-08T21:51:20.260Z,94.50
2018-06-08T21:53:49.290Z,94.70
2018-06-08T21:56:18.327Z,94.70
2018-06-08T21:58:47.357Z,94.70
2018-06-08T22:01:16.380Z,94.70
2018-06-08T22:03:45.372Z,94.70
2018-06-08T22:06:14.426Z,94.80
2018-06-08T22:08:43.499Z,95.00
2018-06-08T22:11:12.545Z,95.10
2018-06-08T22:13:41.587Z,95.10
2018-06-08T22:16:10.619Z,95.10
2018-06-08T22:18:39.655Z,95.30
2018-06-08T22:21:08.793Z,95.40
2018-06-08T22:23:37.841Z,95.50
2018-06-08T22:26:07.005Z,95.50
2018-06-08T22:28:36.038Z,95.60
2018-06-08T22:31:05.209Z,95.70
2018-06-08T22:33:34.263Z,95.70
2018-06-08T22:36:03.421Z,95.70
2018-06-08T22:38:32.440Z,95.70
2018-06-08T22:41:01.504Z,95.90
2018-06-08T22:43:30.529Z,95.80
2018-06-08T22:45:59.634Z,95.70
2018-06-08T22:48:28.777Z,95.70
2018-06-08T22:50:57.815Z,96.20
2018-06-08T22:53:26.912Z,95.90
2018-06-08T22:55:55.888Z,96.10
2018-06-08T22:58:24.988Z,96.10
2018-06-08T23:03:22.760Z,96.30
2018-06-08T23:05:51.825Z,96.30
2018-06-08T23:08:20.890Z,96.30
2018-06-08T23:10:49.968Z,96.40
2018-06-08T23:13:18.972Z,96.50
2018-06-08T23:15:48.041Z,96.60
2018-06-08T23:18:17.007Z,96.60
2018-06-08T23:20:46.023Z,96.70
2018-06-08T23:23:15.104Z,96.80
2018-06-08T23:25:44.081Z,96.80
2018-06-08T23:28:13.154Z,96.90
2018-06-08T23:30:42.216Z,97.00
2018-06-08T23:33:11.358Z,96.90
2018-06-08T23:35:40.494Z,96.80
2018-06-08T23:38:09.555Z,97.00
2018-06-08T23:40:39.820Z,97.00
2018-06-08T23:43:09.065Z,97.20
2018-06-08T23:45:38.277Z,97.30
2018-06-08T23:48:15.004Z,97.60
2018-06-08T23:50:46.849Z,97.60
2018-06-08T23:53:16.012Z,97.70
2018-06-08T23:58:14.750Z,97.90
